RYR70LT LEIB-EGGD
Flight info
| Callsign | RYR70LT |
|---|---|
| Flight time | N/A |
| Altitude | 38000 |
| Route | EPAMA N856 UMURE DCT XIKEN DCT KARES DCT ARBEK DCT REBUL DCT USKAR DCT MOPAS DCT GIROM DCT AGN DCT SECHE DCT UVELI DCT CNA/N0444F340 DCT MANAK DCT MUREL/N0424F300 DCT NOZHU/N0419F290 DCT SHIRI DCT TOJAQ |
| Aircraft | B38M/M-SDE1FGHILORVWXY/HB1 |
Departure
| Time | 2026-04-30 21:06 |
|---|---|
| Airport | Ibiza Airport (LEIB) |
Arrival
| Time | N/A |
|---|---|
| Airport | Bristol Airport (EGGD) |
| Time | Latitude | Longitude | Altitude | Speed | Heading |
|---|---|---|---|---|---|
| 2026-04-30 20:45 | 38.87591 | 1.36992 | 11 ft | 0 kts | 333° |
| 2026-04-30 20:58 | 38.87574 | 1.37005 | 11 ft | 3 kts | 325° |
| 2026-04-30 20:58 | 38.87556 | 1.37024 | 13 ft | 3 kts | 308° |
| 2026-04-30 20:58 | 38.87546 | 1.37050 | 13 ft | 3 kts | 273° |
| 2026-04-30 20:59 | 38.87551 | 1.37074 | 13 ft | 0 kts | 242° |
| 2026-04-30 21:01 | 38.87547 | 1.37064 | 11 ft | 2 kts | 242° |
| 2026-04-30 21:01 | 38.87535 | 1.37036 | 11 ft | 5 kts | 242° |
| 2026-04-30 21:01 | 38.87490 | 1.36928 | 11 ft | 9 kts | 242° |
| 2026-04-30 21:02 | 38.87457 | 1.36848 | 11 ft | 11 kts | 242° |
| 2026-04-30 21:02 | 38.87398 | 1.36802 | 11 ft | 12 kts | 159° |
| 2026-04-30 21:02 | 38.87320 | 1.36851 | 11 ft | 13 kts | 153° |
| 2026-04-30 21:02 | 38.87277 | 1.36843 | 13 ft | 5 kts | 241° |
| 2026-04-30 21:03 | 38.87257 | 1.36794 | 12 ft | 7 kts | 242° |
| 2026-04-30 21:03 | 38.87229 | 1.36725 | 12 ft | 10 kts | 242° |
| 2026-04-30 21:03 | 38.87192 | 1.36632 | 12 ft | 13 kts | 242° |
| 2026-04-30 21:03 | 38.87144 | 1.36516 | 11 ft | 16 kts | 242° |
| 2026-04-30 21:04 | 38.87086 | 1.36376 | 10 ft | 19 kts | 242° |
| 2026-04-30 21:04 | 38.87034 | 1.36251 | 10 ft | 13 kts | 242° |
| 2026-04-30 21:04 | 38.86917 | 1.36258 | 9 ft | 13 kts | 153° |
| 2026-04-30 21:05 | 38.86872 | 1.36302 | 8 ft | 7 kts | 103° |
| 2026-04-30 21:05 | 38.86905 | 1.36394 | 8 ft | 22 kts | 62° |
| 2026-04-30 21:05 | 38.87110 | 1.36893 | 13 ft | 104 kts | 62° |
| 2026-04-30 21:05 | 38.87565 | 1.37995 | 22 ft | 172 kts | 63° |
| 2026-04-30 21:06 | 38.88141 | 1.39474 | 593 ft | 194 kts | 65° |
| 2026-04-30 21:06 | 38.88630 | 1.41137 | 1444 ft | 209 kts | 76° |
| 2026-04-30 21:06 | 38.88944 | 1.43013 | 2369 ft | 218 kts | 79° |
| 2026-04-30 21:06 | 38.89231 | 1.44910 | 3386 ft | 219 kts | 78° |
| 2026-04-30 21:07 | 38.89540 | 1.46811 | 4347 ft | 217 kts | 76° |
| 2026-04-30 21:07 | 38.89866 | 1.48705 | 5268 ft | 221 kts | 75° |
| 2026-04-30 21:07 | 38.90210 | 1.50666 | 6071 ft | 227 kts | 75° |
| 2026-04-30 21:07 | 38.90582 | 1.52669 | 6867 ft | 235 kts | 69° |
| 2026-04-30 21:08 | 38.91519 | 1.54438 | 7243 ft | 252 kts | 33° |
| 2026-04-30 21:08 | 38.93179 | 1.55262 | 7750 ft | 265 kts | 4° |
| 2026-04-30 21:08 | 38.95051 | 1.55035 | 8309 ft | 278 kts | 343° |
| 2026-04-30 21:08 | 38.96945 | 1.54472 | 9205 ft | 281 kts | 345° |
| 2026-04-30 21:09 | 38.98887 | 1.53942 | 10025 ft | 289 kts | 345° |
| 2026-04-30 21:09 | 39.00889 | 1.53413 | 10648 ft | 301 kts | 345° |
| 2026-04-30 21:09 | 39.03018 | 1.52876 | 11028 ft | 322 kts | 346° |
| 2026-04-30 21:09 | 39.05291 | 1.52317 | 11358 ft | 342 kts | 346° |
| 2026-04-30 21:10 | 39.07682 | 1.51729 | 11817 ft | 356 kts | 346° |
| 2026-04-30 21:10 | 39.10131 | 1.51116 | 12578 ft | 360 kts | 346° |
| 2026-04-30 21:10 | 39.12599 | 1.50486 | 13354 ft | 364 kts | 346° |
| 2026-04-30 21:10 | 39.15094 | 1.49842 | 14125 ft | 367 kts | 345° |
| 2026-04-30 21:11 | 39.17618 | 1.49191 | 14796 ft | 372 kts | 346° |
| 2026-04-30 21:11 | 39.20174 | 1.48529 | 15490 ft | 376 kts | 346° |
| 2026-04-30 21:11 | 39.22724 | 1.47868 | 16156 ft | 380 kts | 346° |
| 2026-04-30 21:11 | 39.25341 | 1.47189 | 16806 ft | 385 kts | 346° |
| 2026-04-30 21:12 | 39.27975 | 1.46504 | 17463 ft | 389 kts | 346° |
| 2026-04-30 21:12 | 39.30642 | 1.45810 | 18112 ft | 393 kts | 346° |
| 2026-04-30 21:12 | 39.33335 | 1.45108 | 18696 ft | 397 kts | 346° |
| 2026-04-30 21:12 | 39.36064 | 1.44396 | 19257 ft | 401 kts | 346° |
| 2026-04-30 21:13 | 39.38812 | 1.43678 | 19817 ft | 404 kts | 346° |
| 2026-04-30 21:13 | 39.41580 | 1.42955 | 20364 ft | 408 kts | 346° |
| 2026-04-30 21:13 | 39.44373 | 1.42224 | 20904 ft | 411 kts | 346° |
| 2026-04-30 21:13 | 39.47193 | 1.41485 | 21434 ft | 415 kts | 346° |
| 2026-04-30 21:14 | 39.50035 | 1.40740 | 21957 ft | 418 kts | 346° |
| 2026-04-30 21:14 | 39.52859 | 1.39999 | 22475 ft | 422 kts | 346° |
| 2026-04-30 21:14 | 39.55750 | 1.39239 | 22983 ft | 425 kts | 346° |
| 2026-04-30 21:14 | 39.58658 | 1.38474 | 23526 ft | 428 kts | 346° |
| 2026-04-30 21:15 | 39.61611 | 1.37925 | 24012 ft | 432 kts | 353° |
| 2026-04-30 21:15 | 39.64618 | 1.37588 | 24433 ft | 435 kts | 352° |
| 2026-04-30 21:15 | 39.67637 | 1.37214 | 24856 ft | 437 kts | 351° |
| 2026-04-30 21:15 | 39.70674 | 1.36814 | 25274 ft | 440 kts | 351° |
| 2026-04-30 21:16 | 39.73728 | 1.36405 | 25683 ft | 442 kts | 351° |
| 2026-04-30 21:16 | 39.76799 | 1.35990 | 26092 ft | 445 kts | 351° |
| 2026-04-30 21:16 | 39.79897 | 1.35571 | 26503 ft | 448 kts | 351° |
| 2026-04-30 21:16 | 39.81952 | 1.35293 | 26753 ft | 450 kts | 351° |
| 2026-04-30 21:17 | 39.86135 | 1.34726 | 27255 ft | 454 kts | 351° |
| 2026-04-30 21:17 | 39.89289 | 1.34298 | 27641 ft | 456 kts | 351° |
| 2026-04-30 21:17 | 39.92458 | 1.33868 | 28009 ft | 459 kts | 351° |
| 2026-04-30 21:17 | 39.95611 | 1.33439 | 28376 ft | 462 kts | 351° |
| 2026-04-30 21:18 | 39.98813 | 1.33004 | 28741 ft | 464 kts | 351° |
| 2026-04-30 21:18 | 40.02039 | 1.32564 | 29094 ft | 467 kts | 351° |
| 2026-04-30 21:18 | 40.05282 | 1.32122 | 29464 ft | 469 kts | 351° |
| 2026-04-30 21:18 | 40.08538 | 1.31678 | 29809 ft | 472 kts | 351° |
| 2026-04-30 21:19 | 40.10699 | 1.31383 | 30034 ft | 473 kts | 351° |
| 2026-04-30 21:19 | 40.13985 | 1.30933 | 30339 ft | 476 kts | 350° |
| 2026-04-30 21:19 | 40.17284 | 1.30482 | 30636 ft | 478 kts | 350° |
| 2026-04-30 21:19 | 40.20592 | 1.30028 | 31009 ft | 478 kts | 350° |
| 2026-04-30 21:20 | 40.23895 | 1.29575 | 31426 ft | 477 kts | 349° |
| 2026-04-30 21:20 | 40.27190 | 1.29124 | 31845 ft | 475 kts | 349° |
| 2026-04-30 21:20 | 40.30479 | 1.28672 | 32268 ft | 474 kts | 349° |
| 2026-04-30 21:20 | 40.33766 | 1.28220 | 32672 ft | 474 kts | 349° |
| 2026-04-30 21:21 | 40.37045 | 1.27776 | 33066 ft | 473 kts | 349° |
| 2026-04-30 21:21 | 40.40312 | 1.27334 | 33475 ft | 472 kts | 349° |
| 2026-04-30 21:21 | 40.46797 | 1.26456 | 34244 ft | 470 kts | 349° |
| 2026-04-30 21:22 | 40.50049 | 1.26015 | 34554 ft | 470 kts | 349° |
| 2026-04-30 21:22 | 40.59818 | 1.24686 | 35145 ft | 470 kts | 349° |
| 2026-04-30 21:23 | 40.63065 | 1.24244 | 35125 ft | 468 kts | 349° |
| 2026-04-30 21:23 | 40.72785 | 1.22916 | 35133 ft | 468 kts | 349° |
| 2026-04-30 21:24 | 40.79273 | 1.22029 | 35557 ft | 468 kts | 349° |
| 2026-04-30 21:24 | 40.82510 | 1.21585 | 35837 ft | 468 kts | 350° |
| 2026-04-30 21:24 | 40.85754 | 1.21140 | 36132 ft | 467 kts | 350° |
| 2026-04-30 21:25 | 40.92212 | 1.20253 | 36710 ft | 466 kts | 351° |
| 2026-04-30 21:25 | 40.95434 | 1.19809 | 36974 ft | 465 kts | 351° |
| 2026-04-30 21:25 | 40.98658 | 1.19365 | 37246 ft | 465 kts | 351° |
| 2026-04-30 21:26 | 41.05096 | 1.18477 | 37473 ft | 466 kts | 351° |
| 2026-04-30 21:26 | 41.08306 | 1.18033 | 37226 ft | 462 kts | 351° |
| 2026-04-30 21:27 | 41.14702 | 1.17166 | 36704 ft | 463 kts | 352° |
| 2026-04-30 21:27 | 41.17879 | 1.16810 | 36448 ft | 463 kts | 352° |
| 2026-04-30 21:27 | 41.21092 | 1.16473 | 36190 ft | 464 kts | 352° |
| 2026-04-30 21:28 | 41.27545 | 1.15801 | 35686 ft | 465 kts | 352° |
| 2026-04-30 21:28 | 41.30776 | 1.15462 | 35436 ft | 466 kts | 352° |
| 2026-04-30 21:28 | 41.37247 | 1.14783 | 34953 ft | 466 kts | 352° |
| 2026-04-30 21:29 | 41.40483 | 1.14443 | 34723 ft | 466 kts | 352° |
| 2026-04-30 21:29 | 41.50200 | 1.13420 | 34142 ft | 467 kts | 352° |
| 2026-04-30 21:30 | 41.56695 | 1.12734 | 34157 ft | 469 kts | 352° |
| 2026-04-30 21:31 | 41.72906 | 1.11017 | 34139 ft | 468 kts | 352° |
| 2026-04-30 21:32 | 41.82656 | 1.09979 | 34139 ft | 468 kts | 352° |
| 2026-04-30 21:32 | 41.89148 | 1.09286 | 34138 ft | 467 kts | 352° |
| 2026-04-30 21:33 | 41.98832 | 1.08251 | 34145 ft | 467 kts | 352° |
| 2026-04-30 21:34 | 42.05311 | 1.07556 | 34134 ft | 466 kts | 352° |
| 2026-04-30 21:34 | 42.15027 | 1.06512 | 34152 ft | 467 kts | 352° |
| 2026-04-30 21:35 | 42.21501 | 1.05816 | 34193 ft | 466 kts | 352° |
| 2026-04-30 21:35 | 42.27946 | 1.05122 | 34195 ft | 464 kts | 352° |
| 2026-04-30 21:36 | 42.34391 | 1.04426 | 34188 ft | 464 kts | 352° |
| 2026-04-30 21:37 | 42.47214 | 1.03036 | 34187 ft | 461 kts | 352° |
| 2026-04-30 21:37 | 42.53618 | 1.02337 | 34205 ft | 462 kts | 352° |
| 2026-04-30 21:38 | 42.60027 | 1.01638 | 34203 ft | 461 kts | 352° |
| 2026-04-30 21:38 | 42.66421 | 1.00938 | 34203 ft | 459 kts | 351° |
| 2026-04-30 21:39 | 42.72798 | 1.00239 | 34209 ft | 460 kts | 351° |
| 2026-04-30 21:39 | 42.79185 | 0.99538 | 34180 ft | 459 kts | 351° |
| 2026-04-30 21:40 | 42.85563 | 0.98837 | 34190 ft | 460 kts | 351° |
| 2026-04-30 21:40 | 42.91891 | 0.98140 | 34197 ft | 460 kts | 351° |
| 2026-04-30 21:41 | 42.98275 | 0.97436 | 34189 ft | 459 kts | 351° |
| 2026-04-30 21:41 | 43.04641 | 0.96732 | 34196 ft | 458 kts | 351° |
| 2026-04-30 21:42 | 43.10980 | 0.96030 | 34185 ft | 457 kts | 351° |
| 2026-04-30 21:42 | 43.17322 | 0.95325 | 34183 ft | 457 kts | 351° |
| 2026-04-30 21:43 | 43.23663 | 0.94619 | 34191 ft | 457 kts | 351° |
| 2026-04-30 21:43 | 43.29996 | 0.93914 | 34178 ft | 456 kts | 351° |
| 2026-04-30 21:44 | 43.36327 | 0.93206 | 34181 ft | 456 kts | 351° |
| 2026-04-30 21:44 | 43.42664 | 0.92497 | 34181 ft | 456 kts | 351° |
| 2026-04-30 21:45 | 43.48998 | 0.91786 | 34177 ft | 456 kts | 351° |
| 2026-04-30 21:45 | 43.55285 | 0.91080 | 34180 ft | 456 kts | 351° |
| 2026-04-30 21:46 | 43.61608 | 0.90367 | 34182 ft | 456 kts | 351° |
| 2026-04-30 21:46 | 43.67944 | 0.89652 | 34177 ft | 455 kts | 351° |
| 2026-04-30 21:47 | 43.74263 | 0.88937 | 34175 ft | 455 kts | 351° |
| 2026-04-30 21:47 | 43.80589 | 0.88220 | 34173 ft | 456 kts | 351° |
| 2026-04-30 21:48 | 43.86869 | 0.87487 | 34174 ft | 454 kts | 347° |
| 2026-04-30 21:48 | 43.89870 | 0.86393 | 34163 ft | 441 kts | 332° |
| 2026-04-30 21:48 | 43.92669 | 0.84664 | 34171 ft | 442 kts | 332° |
| 2026-04-30 21:49 | 43.98276 | 0.81164 | 34179 ft | 442 kts | 330° |
| 2026-04-30 21:49 | 44.03859 | 0.77580 | 34204 ft | 441 kts | 330° |
| 2026-04-30 21:50 | 44.09415 | 0.73987 | 34180 ft | 439 kts | 330° |
| 2026-04-30 21:50 | 44.14955 | 0.70394 | 34185 ft | 439 kts | 330° |
| 2026-04-30 21:51 | 44.20496 | 0.66793 | 34184 ft | 439 kts | 330° |
| 2026-04-30 21:51 | 44.26042 | 0.63182 | 34187 ft | 439 kts | 330° |
| 2026-04-30 21:52 | 44.31585 | 0.59565 | 34172 ft | 439 kts | 330° |
| 2026-04-30 21:52 | 44.37085 | 0.55969 | 34168 ft | 439 kts | 330° |
| 2026-04-30 21:53 | 44.42625 | 0.52340 | 34200 ft | 439 kts | 330° |
| 2026-04-30 21:53 | 44.48181 | 0.48662 | 34182 ft | 442 kts | 330° |
| 2026-04-30 21:54 | 44.53738 | 0.44977 | 34176 ft | 442 kts | 330° |
| 2026-04-30 21:54 | 44.59291 | 0.41288 | 34184 ft | 442 kts | 330° |
| 2026-04-30 21:55 | 44.64849 | 0.37586 | 34174 ft | 443 kts | 331° |
| 2026-04-30 21:55 | 44.70396 | 0.33885 | 34181 ft | 440 kts | 331° |
| 2026-04-30 21:56 | 44.75900 | 0.30204 | 34185 ft | 441 kts | 331° |
| 2026-04-30 21:56 | 44.81448 | 0.26486 | 34182 ft | 440 kts | 331° |
| 2026-04-30 21:57 | 44.86980 | 0.22771 | 34182 ft | 440 kts | 331° |
| 2026-04-30 21:57 | 44.92505 | 0.19052 | 34182 ft | 440 kts | 331° |
| 2026-04-30 21:58 | 44.98034 | 0.15323 | 34187 ft | 440 kts | 331° |
| 2026-04-30 21:58 | 45.03571 | 0.11581 | 34187 ft | 442 kts | 332° |
| 2026-04-30 21:59 | 45.09124 | 0.07818 | 34181 ft | 442 kts | 332° |
| 2026-04-30 22:00 | 45.17449 | 0.02162 | 34184 ft | 442 kts | 332° |
| 2026-04-30 22:00 | 45.25737 | -0.03486 | 34182 ft | 437 kts | 332° |
| 2026-04-30 22:01 | 45.31199 | -0.07220 | 34182 ft | 436 kts | 332° |
| 2026-04-30 22:01 | 45.36674 | -0.10970 | 34184 ft | 436 kts | 332° |
| 2026-04-30 22:02 | 45.42144 | -0.14724 | 34182 ft | 438 kts | 333° |
| 2026-04-30 22:02 | 45.47648 | -0.18510 | 34182 ft | 439 kts | 333° |
| 2026-04-30 22:03 | 45.53143 | -0.22298 | 34183 ft | 439 kts | 333° |
| 2026-04-30 22:03 | 45.58607 | -0.26074 | 34192 ft | 439 kts | 333° |
| 2026-04-30 22:04 | 45.64163 | -0.29920 | 34187 ft | 446 kts | 333° |
| 2026-04-30 22:04 | 45.69251 | -0.34922 | 34167 ft | 446 kts | 322° |
| 2026-04-30 22:05 | 45.71699 | -0.37643 | 34167 ft | 445 kts | 322° |
| 2026-04-30 22:05 | 45.76578 | -0.43129 | 34169 ft | 446 kts | 321° |
| 2026-04-30 22:06 | 45.80632 | -0.47708 | 34184 ft | 449 kts | 322° |
| 2026-04-30 22:06 | 45.87994 | -0.56050 | 34176 ft | 450 kts | 322° |
| 2026-04-30 22:07 | 45.92910 | -0.61636 | 34176 ft | 450 kts | 322° |
| 2026-04-30 22:07 | 45.97820 | -0.67229 | 34179 ft | 450 kts | 322° |
| 2026-04-30 22:08 | 46.02763 | -0.72872 | 34175 ft | 455 kts | 322° |
| 2026-04-30 22:08 | 46.07685 | -0.78505 | 34175 ft | 455 kts | 322° |
| 2026-04-30 22:09 | 46.12601 | -0.84145 | 34171 ft | 446 kts | 322° |
| 2026-04-30 22:09 | 46.17445 | -0.89712 | 34161 ft | 445 kts | 322° |
| 2026-04-30 22:10 | 46.22438 | -0.95091 | 34149 ft | 448 kts | 332° |
| 2026-04-30 22:10 | 46.27940 | -0.99372 | 34147 ft | 449 kts | 332° |
| 2026-04-30 22:11 | 46.36173 | -1.05860 | 34159 ft | 449 kts | 332° |
| 2026-04-30 22:12 | 46.41631 | -1.10169 | 34166 ft | 450 kts | 332° |
| 2026-04-30 22:12 | 46.47140 | -1.14528 | 34162 ft | 450 kts | 332° |
| 2026-04-30 22:13 | 46.52635 | -1.18886 | 34161 ft | 450 kts | 332° |
| 2026-04-30 22:13 | 46.58135 | -1.23257 | 34151 ft | 449 kts | 331° |
| 2026-04-30 22:14 | 46.63646 | -1.27649 | 34157 ft | 452 kts | 331° |
| 2026-04-30 22:14 | 46.69128 | -1.32028 | 34156 ft | 452 kts | 331° |
| 2026-04-30 22:15 | 46.74646 | -1.36446 | 34157 ft | 452 kts | 331° |
| 2026-04-30 22:15 | 46.80153 | -1.40865 | 34157 ft | 452 kts | 331° |
| 2026-04-30 22:16 | 46.85667 | -1.45300 | 34158 ft | 452 kts | 331° |
| 2026-04-30 22:17 | 46.96675 | -1.54185 | 34171 ft | 452 kts | 332° |
| 2026-04-30 22:17 | 47.04959 | -1.60900 | 34162 ft | 454 kts | 331° |
| 2026-04-30 22:18 | 47.13212 | -1.67614 | 34155 ft | 453 kts | 330° |
| 2026-04-30 22:19 | 47.21500 | -1.74380 | 34159 ft | 455 kts | 330° |
| 2026-04-30 22:20 | 47.29789 | -1.81171 | 34156 ft | 455 kts | 330° |
| 2026-04-30 22:20 | 47.38077 | -1.87986 | 34150 ft | 455 kts | 330° |
| 2026-04-30 22:21 | 47.43598 | -1.92540 | 34154 ft | 459 kts | 330° |
| 2026-04-30 22:21 | 47.49169 | -1.97147 | 34153 ft | 459 kts | 330° |
| 2026-04-30 22:22 | 47.54736 | -2.01761 | 34148 ft | 459 kts | 330° |
| 2026-04-30 22:22 | 47.60315 | -2.06397 | 34143 ft | 460 kts | 330° |
| 2026-04-30 22:23 | 47.65919 | -2.11064 | 34157 ft | 459 kts | 329° |
| 2026-04-30 22:23 | 47.71407 | -2.15647 | 34145 ft | 453 kts | 329° |
| 2026-04-30 22:24 | 47.76896 | -2.20241 | 34146 ft | 453 kts | 329° |
| 2026-04-30 22:24 | 47.82405 | -2.24864 | 34142 ft | 457 kts | 329° |
| 2026-04-30 22:25 | 47.87952 | -2.29530 | 34143 ft | 457 kts | 329° |
| 2026-04-30 22:25 | 47.93495 | -2.34204 | 34143 ft | 457 kts | 329° |
| 2026-04-30 22:26 | 48.01807 | -2.41235 | 34143 ft | 460 kts | 329° |
| 2026-04-30 22:27 | 48.07349 | -2.45937 | 34146 ft | 461 kts | 330° |
| 2026-04-30 22:27 | 48.15714 | -2.53057 | 34144 ft | 461 kts | 329° |
| 2026-04-30 22:28 | 48.24068 | -2.60197 | 34145 ft | 459 kts | 329° |
| 2026-04-30 22:29 | 48.35171 | -2.69724 | 34143 ft | 459 kts | 329° |
| 2026-04-30 22:31 | 48.54642 | -2.86552 | 34128 ft | 463 kts | 329° |
| 2026-04-30 22:32 | 48.68651 | -2.98752 | 34135 ft | 466 kts | 329° |
| 2026-04-30 22:33 | 48.82580 | -3.10962 | 34131 ft | 458 kts | 328° |
| 2026-04-30 22:35 | 48.96694 | -3.22255 | 34128 ft | 459 kts | 333° |
| 2026-04-30 22:36 | 49.11123 | -3.32839 | 34141 ft | 462 kts | 333° |
| 2026-04-30 22:37 | 49.22699 | -3.41400 | 34141 ft | 462 kts | 333° |
| 2026-04-30 22:38 | 49.34250 | -3.49988 | 34139 ft | 463 kts | 333° |
| 2026-04-30 22:39 | 49.42941 | -3.56479 | 34133 ft | 463 kts | 333° |
| 2026-04-30 22:40 | 49.60417 | -3.69611 | 34138 ft | 466 kts | 332° |
| 2026-04-30 22:41 | 49.69330 | -3.75585 | 34116 ft | 468 kts | 349° |
| 2026-04-30 22:41 | 49.75706 | -3.75624 | 33046 ft | 460 kts | 3° |
| 2026-04-30 22:42 | 49.88755 | -3.74183 | 29576 ft | 479 kts | 5° |
| 2026-04-30 22:43 | 49.95410 | -3.73394 | 28006 ft | 475 kts | 5° |
| 2026-04-30 22:43 | 50.02086 | -3.72601 | 26654 ft | 483 kts | 5° |
| 2026-04-30 22:44 | 50.08760 | -3.71805 | 25326 ft | 477 kts | 5° |
| 2026-04-30 22:45 | 50.21811 | -3.70243 | 22599 ft | 466 kts | 5° |
| 2026-04-30 22:45 | 50.28207 | -3.69474 | 21452 ft | 455 kts | 5° |
| 2026-04-30 22:46 | 50.34465 | -3.68720 | 20322 ft | 446 kts | 5° |
| 2026-04-30 22:47 | 50.46594 | -3.66893 | 18295 ft | 432 kts | 7° |
| 2026-04-30 22:47 | 50.52533 | -3.65766 | 17218 ft | 427 kts | 8° |
| 2026-04-30 22:48 | 50.58386 | -3.64650 | 16186 ft | 421 kts | 8° |
| 2026-04-30 22:49 | 50.66983 | -3.63009 | 14713 ft | 412 kts | 8° |
| 2026-04-30 22:49 | 50.75452 | -3.61386 | 13212 ft | 405 kts | 8° |
| 2026-04-30 22:50 | 50.86494 | -3.59261 | 11177 ft | 395 kts | 8° |
| 2026-04-30 22:51 | 50.91931 | -3.58212 | 10206 ft | 391 kts | 8° |
| 2026-04-30 22:51 | 50.96877 | -3.55128 | 9157 ft | 381 kts | 33° |
| 2026-04-30 22:52 | 50.99160 | -3.53019 | 8659 ft | 379 kts | 32° |
| 2026-04-30 22:52 | 51.03678 | -3.48897 | 7654 ft | 374 kts | 32° |
| 2026-04-30 22:53 | 51.07412 | -3.45500 | 7046 ft | 366 kts | 32° |
| 2026-04-30 22:53 | 51.11836 | -3.41471 | 6935 ft | 366 kts | 32° |
| 2026-04-30 22:53 | 51.14048 | -3.39452 | 6737 ft | 366 kts | 32° |
| 2026-04-30 22:54 | 51.18283 | -3.35118 | 6243 ft | 356 kts | 50° |
| 2026-04-30 22:55 | 51.22396 | -3.26416 | 5614 ft | 302 kts | 56° |
| 2026-04-30 22:55 | 51.24791 | -3.21338 | 5181 ft | 276 kts | 57° |
| 2026-04-30 22:56 | 51.27005 | -3.16643 | 4734 ft | 254 kts | 57° |
| 2026-04-30 22:56 | 51.30266 | -3.10507 | 4093 ft | 234 kts | 38° |
| 2026-04-30 22:57 | 51.32986 | -3.07832 | 3708 ft | 226 kts | 35° |
| 2026-04-30 22:57 | 51.35662 | -3.05265 | 3437 ft | 222 kts | 40° |
| 2026-04-30 22:58 | 51.37005 | -3.01207 | 3488 ft | 206 kts | 86° |
| 2026-04-30 22:59 | 51.37367 | -2.94915 | 3203 ft | 185 kts | 92° |
| 2026-04-30 22:59 | 51.37592 | -2.89257 | 2571 ft | 158 kts | 94° |